createdAt,value
2018-06-20T00:00:09.984Z,17.19
2018-06-20T00:02:39.064Z,17.18
2018-06-20T00:05:08.256Z,17.15
2018-06-20T00:07:38.216Z,17.09
2018-06-20T00:10:07.364Z,17.12
2018-06-20T00:12:36.484Z,17.08
2018-06-20T00:15:05.650Z,17.08
2018-06-20T00:17:35.596Z,17.04
2018-06-20T00:20:04.744Z,17.03
2018-06-20T00:22:33.917Z,17.05
2018-06-20T00:25:03.261Z,17.05
2018-06-20T00:27:32.389Z,17.01
2018-06-20T00:30:02.488Z,16.95
2018-06-20T00:32:31.600Z,16.95
2018-06-20T00:35:00.731Z,16.98
2018-06-20T00:37:30.132Z,16.94
2018-06-20T00:39:59.184Z,16.87
2018-06-20T00:42:28.324Z,16.81
2018-06-20T00:44:59.000Z,16.78
2018-06-20T00:47:28.137Z,16.77
2018-06-20T00:49:57.240Z,16.73
2018-06-20T00:52:26.400Z,16.65
2018-06-20T00:54:55.495Z,16.62
2018-06-20T00:57:25.500Z,16.62
2018-06-20T00:59:54.623Z,16.53
2018-06-20T01:02:23.792Z,16.53
2018-06-20T01:04:52.933Z,16.46
2018-06-20T01:07:22.100Z,16.42
2018-06-20T01:09:51.289Z,16.41
2018-06-20T01:12:21.203Z,16.38
2018-06-20T01:14:50.448Z,16.36
2018-06-20T01:17:19.622Z,16.37
2018-06-20T01:19:49.000Z,16.36
2018-06-20T01:22:18.124Z,16.33
2018-06-20T01:24:47.392Z,16.38
2018-06-20T01:27:18.276Z,16.31
2018-06-20T01:29:47.472Z,16.26
2018-06-20T01:32:16.669Z,16.24
2018-06-20T01:34:45.848Z,16.17
2018-06-20T01:37:15.044Z,16.14
2018-06-20T01:39:44.244Z,16.17
2018-06-20T01:42:13.976Z,16.12
2018-06-20T01:44:43.100Z,16.10
2018-06-20T01:47:12.233Z,16.03
2018-06-20T01:49:42.110Z,16.01
2018-06-20T01:52:11.260Z,16.08
2018-06-20T01:54:40.496Z,16.08
2018-06-20T01:57:10.424Z,16.04
2018-06-20T01:59:39.580Z,15.99
2018-06-20T02:02:08.668Z,15.96
2018-06-20T02:04:37.988Z,15.93
2018-06-20T02:07:07.255Z,15.97
2018-06-20T02:09:36.460Z,15.95
2018-06-20T02:12:06.351Z,15.93
2018-06-20T02:14:35.448Z,15.92
2018-06-20T02:17:04.596Z,15.85
2018-06-20T02:19:33.996Z,15.80
2018-06-20T02:22:03.112Z,15.83
2018-06-20T02:24:32.356Z,15.81
2018-06-20T02:27:02.317Z,15.73
2018-06-20T02:29:31.404Z,15.70
2018-06-20T02:32:01.593Z,15.61
2018-06-20T02:34:30.685Z,15.65
2018-06-20T02:36:59.812Z,15.62
2018-06-20T02:39:29.216Z,15.54
2018-06-20T02:41:59.249Z,15.56
2018-06-20T02:44:28.441Z,15.54
2018-06-20T02:46:57.628Z,15.55
2018-06-20T02:49:26.841Z,15.54
2018-06-20T02:51:55.932Z,15.50
2018-06-20T02:54:25.185Z,15.48
2018-06-20T02:56:55.037Z,15.47
2018-06-20T02:59:24.144Z,15.43
2018-06-20T03:01:53.221Z,15.37
2018-06-20T03:04:22.384Z,15.34
2018-06-20T03:06:51.572Z,15.36
2018-06-20T03:09:24.918Z,15.33
2018-06-20T03:11:54.808Z,15.36
2018-06-20T03:14:23.916Z,15.30
2018-06-20T03:16:52.996Z,15.28
2018-06-20T03:19:22.341Z,15.29
2018-06-20T03:21:51.525Z,15.32
2018-06-20T03:24:20.707Z,15.32
2018-06-20T03:26:50.581Z,15.30
2018-06-20T03:29:19.704Z,15.30
2018-06-20T03:31:48.813Z,15.31
2018-06-20T03:34:18.195Z,15.27
2018-06-20T03:36:47.312Z,15.33
2018-06-20T03:39:16.541Z,15.35
2018-06-20T03:41:46.442Z,15.34
2018-06-20T03:44:15.541Z,15.31
2018-06-20T03:46:44.616Z,15.26
2018-06-20T03:49:14.000Z,15.30
2018-06-20T03:51:43.116Z,15.34
2018-06-20T03:54:12.312Z,15.33
2018-06-20T03:56:42.057Z,15.34
2018-06-20T03:59:11.199Z,15.38
2018-06-20T04:01:40.372Z,15.41
2018-06-20T04:04:09.520Z,15.38
2018-06-20T04:06:38.617Z,15.43
2018-06-20T04:09:11.037Z,15.48
2018-06-20T04:11:40.828Z,15.52
2018-06-20T04:14:10.205Z,15.61
2018-06-20T04:16:39.348Z,15.61
2018-06-20T04:19:08.692Z,15.69
2018-06-20T04:21:37.848Z,15.78
2018-06-20T04:24:07.044Z,15.86
2018-06-20T04:26:37.936Z,15.84
2018-06-20T04:29:07.081Z,15.91
2018-06-20T04:31:36.201Z,16.06
2018-06-20T04:34:05.340Z,16.09
2018-06-20T04:36:34.465Z,16.18
2018-06-20T04:39:04.435Z,16.21
2018-06-20T04:41:34.328Z,16.27
2018-06-20T04:44:03.532Z,16.34
2018-06-20T04:46:32.645Z,16.49
2018-06-20T04:49:02.605Z,16.63
2018-06-20T04:51:32.632Z,16.71
2018-06-20T04:54:02.695Z,16.78
2018-06-20T04:56:31.837Z,16.78
2018-06-20T04:59:00.988Z,16.94
2018-06-20T05:01:30.349Z,17.12
2018-06-20T05:03:59.444Z,17.24
2018-06-20T05:06:29.299Z,17.35
2018-06-20T05:09:01.832Z,17.41
2018-06-20T05:11:31.941Z,17.45
2018-06-20T05:14:02.157Z,17.46
2018-06-20T05:16:31.324Z,17.50
2018-06-20T05:19:00.512Z,17.65
2018-06-20T05:21:29.680Z,17.80
2018-06-20T05:23:59.816Z,17.95
2018-06-20T05:26:28.953Z,18.08
2018-06-20T05:28:58.648Z,18.23
2018-06-20T05:31:28.696Z,18.38
2018-06-20T05:33:58.508Z,18.50
2018-06-20T05:36:28.732Z,18.60
2018-06-20T05:38:58.589Z,18.76
2018-06-20T05:41:28.550Z,18.87
2018-06-20T05:43:58.884Z,18.99
2018-06-20T05:46:28.032Z,19.11
2018-06-20T05:48:58.152Z,19.16
2018-06-20T05:51:28.141Z,19.21
2018-06-20T05:53:58.255Z,19.30
2018-06-20T05:56:28.100Z,19.12
2018-06-20T05:58:58.168Z,19.21
2018-06-20T06:01:27.721Z,19.29
2018-06-20T06:03:57.852Z,19.62
2018-06-20T06:06:28.216Z,19.83
2018-06-20T06:08:58.292Z,19.93
2018-06-20T06:11:28.100Z,20.10
2018-06-20T06:13:57.988Z,19.82
2018-06-20T06:16:28.020Z,20.20
2018-06-20T06:18:58.889Z,20.51
2018-06-20T06:21:29.220Z,20.73
2018-06-20T06:23:59.153Z,20.98
2018-06-20T06:26:29.040Z,21.33
2018-06-20T06:28:59.624Z,21.71
2018-06-20T06:31:29.413Z,22.25
2018-06-20T06:33:59.485Z,21.86
2018-06-20T06:36:29.596Z,22.15
2018-06-20T06:38:59.136Z,22.08
2018-06-20T06:41:29.647Z,21.76
2018-06-20T06:43:59.272Z,21.73
2018-06-20T06:46:29.413Z,21.85
2018-06-20T06:48:58.944Z,21.48
2018-06-20T06:51:29.672Z,21.68
2018-06-20T06:54:00.469Z,22.04
2018-06-20T06:56:32.372Z,22.37
2018-06-20T06:59:02.625Z,22.58
2018-06-20T07:01:32.768Z,22.85
2018-06-20T07:04:02.808Z,22.66
2018-06-20T07:06:33.028Z,23.00
2018-06-20T07:09:02.991Z,23.03
2018-06-20T07:11:32.889Z,23.21
2018-06-20T07:14:02.850Z,23.25
2018-06-20T07:16:33.126Z,23.67
2018-06-20T07:19:02.846Z,24.01
2018-06-20T07:21:32.959Z,23.99
2018-06-20T07:24:02.889Z,24.07
2018-06-20T07:26:32.006Z,24.70
2018-06-20T07:29:02.073Z,25.01
2018-06-20T07:31:32.456Z,24.26
2018-06-20T07:34:02.406Z,24.48
2018-06-20T07:36:32.673Z,25.12
2018-06-20T07:39:03.021Z,26.44
2018-06-20T07:41:34.074Z,28.14
2018-06-20T07:44:04.060Z,27.10
2018-06-20T07:46:34.577Z,27.85
2018-06-20T07:49:05.632Z,30.16
2018-06-20T07:51:36.522Z,31.24
2018-06-20T07:54:06.185Z,33.46
2018-06-20T07:56:36.103Z,34.57
2018-06-20T07:59:12.047Z,36.15
2018-06-20T08:02:04.980Z,33.44
2018-06-20T08:04:40.180Z,35.72
2018-06-20T08:07:16.838Z,29.69
2018-06-20T08:09:53.064Z,29.11
2018-06-20T08:12:30.232Z,31.04
2018-06-20T08:15:06.017Z,33.89
2018-06-20T08:17:42.400Z,33.47
2018-06-20T08:21:42.813Z,34.34
2018-06-20T08:24:13.450Z,33.50
2018-06-20T08:26:43.229Z,35.77
2018-06-20T08:29:13.559Z,37.64
2018-06-20T08:31:43.597Z,39.20
2018-06-20T08:34:15.122Z,35.43
2018-06-20T08:36:44.972Z,35.05
2018-06-20T08:39:15.022Z,35.02
2018-06-20T08:41:45.173Z,34.14
2018-06-20T08:44:15.176Z,33.44
2018-06-20T08:46:45.284Z,32.46
2018-06-20T08:49:15.259Z,33.64
2018-06-20T08:51:45.628Z,34.57
2018-06-20T08:54:15.707Z,35.97
2018-06-20T08:56:46.071Z,38.01
2018-06-20T08:59:16.668Z,33.72
2018-06-20T09:01:45.818Z,35.44
2018-06-20T09:04:20.876Z,36.62
2018-06-20T09:06:57.060Z,39.46
2018-06-20T09:09:32.251Z,39.37
2018-06-20T09:12:07.008Z,37.85
2018-06-20T09:14:43.506Z,36.32
2018-06-20T09:17:17.877Z,36.16
2018-06-20T09:19:50.376Z,35.41
2018-06-20T09:22:20.588Z,36.12
2018-06-20T09:24:51.728Z,36.48
2018-06-20T09:27:21.861Z,35.69
2018-06-20T09:29:51.985Z,37.26
2018-06-20T09:32:21.964Z,38.57
2018-06-20T09:34:52.065Z,39.54
2018-06-20T09:37:23.107Z,37.55
2018-06-20T09:39:53.736Z,35.37
2018-06-20T09:42:24.928Z,36.34
2018-06-20T09:44:54.650Z,34.01
2018-06-20T09:47:24.708Z,33.50
2018-06-20T09:49:54.568Z,36.41
2018-06-20T09:52:24.602Z,38.41
2018-06-20T09:54:54.728Z,39.47
2018-06-20T09:57:24.738Z,40.21
2018-06-20T10:00:00.220Z,37.77
2018-06-20T10:02:36.178Z,37.62
2018-06-20T10:05:11.446Z,39.76
2018-06-20T10:07:46.421Z,40.32
2018-06-20T10:10:22.232Z,42.11
2018-06-20T10:12:57.086Z,38.75
2018-06-20T10:15:27.932Z,40.43
2018-06-20T10:17:57.801Z,40.51
2018-06-20T10:20:28.897Z,39.82
2018-06-20T10:23:00.040Z,38.32
2018-06-20T10:25:30.585Z,38.01
2018-06-20T10:28:00.818Z,38.11
2018-06-20T10:30:30.696Z,39.40
2018-06-20T10:33:01.730Z,40.08
2018-06-20T10:35:31.635Z,39.68
2018-06-20T10:38:01.642Z,39.00
2018-06-20T10:40:31.946Z,41.30
2018-06-20T10:43:01.972Z,41.03
2018-06-20T10:45:36.987Z,37.15
2018-06-20T10:48:12.042Z,36.34
2018-06-20T10:50:41.360Z,34.47
2018-06-20T10:53:10.577Z,35.17
2018-06-20T10:55:40.832Z,35.57
2018-06-20T10:58:16.324Z,37.72
2018-06-20T11:00:52.954Z,39.23
2018-06-20T11:03:29.232Z,40.23
2018-06-20T11:06:05.310Z,42.04
2018-06-20T11:08:40.374Z,42.70
2018-06-20T11:11:16.091Z,42.78
2018-06-20T11:13:46.179Z,43.03
2018-06-20T11:16:16.245Z,43.09
2018-06-20T11:18:48.399Z,43.88
2018-06-20T11:21:17.707Z,43.45
2018-06-20T11:23:47.703Z,43.66
2018-06-20T11:26:17.692Z,43.42
2018-06-20T11:28:47.540Z,37.46
2018-06-20T11:31:17.269Z,36.71
2018-06-20T11:33:46.472Z,38.64
2018-06-20T11:36:16.240Z,39.37
2018-06-20T11:38:46.553Z,40.41
2018-06-20T11:41:15.814Z,40.98
2018-06-20T11:43:45.006Z,40.44
2018-06-20T11:46:21.799Z,40.28
2018-06-20T11:48:52.504Z,40.70
2018-06-20T11:51:22.282Z,39.71
2018-06-20T11:53:52.403Z,39.55
2018-06-20T11:56:23.692Z,39.75
2018-06-20T11:59:02.428Z,39.38
2018-06-20T12:01:36.953Z,39.60
2018-06-20T12:04:12.855Z,40.19
2018-06-20T12:06:48.306Z,40.95
2018-06-20T12:09:24.750Z,41.26
2018-06-20T12:12:01.858Z,40.75
2018-06-20T12:14:36.631Z,40.82
2018-06-20T12:17:06.145Z,40.72
2018-06-20T12:19:42.129Z,40.48
2018-06-20T12:22:17.992Z,41.25
2018-06-20T12:24:54.751Z,41.62
2018-06-20T12:27:29.377Z,39.27
2018-06-20T12:30:05.882Z,38.39
2018-06-20T12:32:42.811Z,38.88
2018-06-20T12:35:22.825Z,37.53
2018-06-20T12:37:59.217Z,38.60
2018-06-20T12:40:43.419Z,40.45
2018-06-20T12:43:19.922Z,40.68
2018-06-20T12:45:53.747Z,40.28
2018-06-20T12:48:23.539Z,40.47
2018-06-20T12:50:53.092Z,40.22
2018-06-20T12:53:24.276Z,39.84
2018-06-20T12:55:54.210Z,40.66
2018-06-20T12:58:24.209Z,39.89
2018-06-20T13:00:53.613Z,39.85
2018-06-20T13:03:27.189Z,39.82
2018-06-20T13:05:56.670Z,40.46
2018-06-20T13:08:27.279Z,40.90
2018-06-20T13:10:57.779Z,40.42
2018-06-20T13:13:27.459Z,41.51
2018-06-20T13:15:57.224Z,40.84
2018-06-20T13:18:28.353Z,39.84
2018-06-20T13:20:58.759Z,39.12
2018-06-20T13:23:29.914Z,38.92
2018-06-20T13:26:00.235Z,38.36
2018-06-20T13:28:30.866Z,37.95
2018-06-20T13:33:11.207Z,37.54
2018-06-20T13:35:48.490Z,40.38
2018-06-20T13:38:29.310Z,40.67
2018-06-20T13:41:05.362Z,40.63
2018-06-20T13:43:43.114Z,40.53
2018-06-20T13:46:18.486Z,41.63
2018-06-20T13:48:48.851Z,41.87
2018-06-20T13:51:18.462Z,42.41
2018-06-20T13:53:48.072Z,42.13
2018-06-20T13:56:17.823Z,42.80
2018-06-20T13:58:46.855Z,42.33
2018-06-20T14:01:16.789Z,43.01
2018-06-20T14:03:46.502Z,42.93
2018-06-20T14:06:15.884Z,42.43
2018-06-20T14:08:45.640Z,41.68
2018-06-20T14:11:15.459Z,40.39
2018-06-20T14:13:45.833Z,40.82
2018-06-20T14:16:16.300Z,41.58
2018-06-20T14:18:45.452Z,41.12
2018-06-20T14:21:20.253Z,41.78
2018-06-20T14:23:49.492Z,40.98
2018-06-20T14:26:19.348Z,39.55
2018-06-20T14:28:50.011Z,40.01
2018-06-20T14:31:26.470Z,39.69
2018-06-20T14:34:00.914Z,39.65
2018-06-20T14:36:35.948Z,39.94
2018-06-20T14:39:14.061Z,39.18
2018-06-20T14:41:50.505Z,39.22
2018-06-20T14:44:20.378Z,39.31
2018-06-20T14:46:49.535Z,39.14
2018-06-20T14:49:19.033Z,39.10
2018-06-20T14:51:48.901Z,37.94
2018-06-20T14:54:18.889Z,37.03
2018-06-20T14:56:48.949Z,36.18
2018-06-20T14:59:18.153Z,34.76
2018-06-20T15:01:48.556Z,33.72
2018-06-20T15:04:18.316Z,33.31
2018-06-20T15:06:47.490Z,33.20
2018-06-20T15:09:17.289Z,33.97
2018-06-20T15:11:47.040Z,33.68
2018-06-20T15:14:16.804Z,34.56
2018-06-20T15:16:51.377Z,35.56
2018-06-20T15:19:20.480Z,34.87
2018-06-20T15:21:49.717Z,34.26
2018-06-20T15:24:18.866Z,34.19
2018-06-20T15:26:53.256Z,34.62
2018-06-20T15:29:27.550Z,35.05
2018-06-20T15:32:02.958Z,34.55
2018-06-20T15:34:37.260Z,34.14
2018-06-20T15:37:13.488Z,34.28
2018-06-20T15:39:42.773Z,33.81
2018-06-20T15:42:12.029Z,33.44
2018-06-20T15:44:41.240Z,33.33
2018-06-20T15:47:10.391Z,32.62
2018-06-20T15:49:40.238Z,32.26
2018-06-20T15:52:09.297Z,31.89
2018-06-20T15:54:38.526Z,31.59
2018-06-20T15:57:08.441Z,31.79
2018-06-20T15:59:38.383Z,31.81
2018-06-20T16:02:07.500Z,32.16
2018-06-20T16:04:37.533Z,31.99
2018-06-20T16:07:07.343Z,32.01
2018-06-20T16:09:41.692Z,32.49
2018-06-20T16:12:11.073Z,32.33
2018-06-20T16:14:40.172Z,32.13
2018-06-20T16:17:10.385Z,31.87
2018-06-20T16:19:45.340Z,31.87
2018-06-20T16:24:24.383Z,31.47
2018-06-20T16:26:59.109Z,31.40
2018-06-20T16:29:33.652Z,31.28
2018-06-20T16:32:04.172Z,31.60
2018-06-20T16:34:35.217Z,31.54
2018-06-20T16:37:05.280Z,31.44
2018-06-20T16:39:35.369Z,31.47
2018-06-20T16:42:04.520Z,31.26
2018-06-20T16:44:34.513Z,31.34
2018-06-20T16:47:03.649Z,31.16
2018-06-20T16:49:32.856Z,31.11
2018-06-20T16:52:02.667Z,31.00
2018-06-20T16:54:32.668Z,31.17
2018-06-20T16:57:02.709Z,31.19
2018-06-20T16:59:31.810Z,31.25
2018-06-20T17:02:06.928Z,31.41
2018-06-20T17:04:36.832Z,31.34
2018-06-20T17:07:06.749Z,30.93
2018-06-20T17:09:36.079Z,30.88
2018-06-20T17:12:10.684Z,30.96
2018-06-20T17:14:44.951Z,30.95
2018-06-20T17:17:21.020Z,30.98
2018-06-20T17:19:55.383Z,30.74
2018-06-20T17:22:31.467Z,30.51
2018-06-20T17:25:05.764Z,30.59
2018-06-20T17:27:35.184Z,30.77
2018-06-20T17:30:05.825Z,30.69
2018-06-20T17:32:35.653Z,30.56
2018-06-20T17:35:04.852Z,30.57
2018-06-20T17:37:34.572Z,30.57
2018-06-20T17:40:03.788Z,30.45
2018-06-20T17:42:33.576Z,30.18
2018-06-20T17:45:02.728Z,30.16
2018-06-20T17:47:31.924Z,29.98
2018-06-20T17:50:01.094Z,29.87
2018-06-20T17:52:30.267Z,29.81
2018-06-20T17:54:59.413Z,29.68
2018-06-20T17:57:28.920Z,29.64
2018-06-20T17:59:58.012Z,29.67
2018-06-20T18:02:27.122Z,29.57
2018-06-20T18:05:01.710Z,29.43
2018-06-20T18:07:36.850Z,29.23
2018-06-20T18:10:11.384Z,29.21
2018-06-20T18:12:45.733Z,29.08
2018-06-20T18:15:20.273Z,28.95
2018-06-20T18:17:49.540Z,28.77
2018-06-20T18:20:18.620Z,28.69
2018-06-20T18:22:47.701Z,28.66
2018-06-20T18:25:17.104Z,28.66
2018-06-20T18:27:46.284Z,28.46
2018-06-20T18:30:15.641Z,28.25
2018-06-20T18:32:44.733Z,28.18
2018-06-20T18:35:14.693Z,28.11
2018-06-20T18:37:43.799Z,27.91
2018-06-20T18:40:12.897Z,27.87
2018-06-20T18:42:42.643Z,27.74
2018-06-20T18:45:11.700Z,27.60
2018-06-20T18:47:46.080Z,27.49
2018-06-20T18:50:15.172Z,27.43
2018-06-20T18:52:44.309Z,27.19
2018-06-20T18:55:13.640Z,27.04
2018-06-20T18:57:48.065Z,26.92
2018-06-20T19:00:22.464Z,26.77
2018-06-20T19:02:56.982Z,26.63
2018-06-20T19:05:31.351Z,26.47
2018-06-20T19:08:05.725Z,26.39
2018-06-20T19:10:35.092Z,26.26
2018-06-20T19:13:04.220Z,26.12
2018-06-20T19:15:34.037Z,26.07
2018-06-20T19:18:03.157Z,26.01
2018-06-20T19:20:32.213Z,25.90
2018-06-20T19:23:02.264Z,25.84
2018-06-20T19:25:31.366Z,25.72
2018-06-20T19:28:00.556Z,25.64
2018-06-20T19:30:29.928Z,25.50
2018-06-20T19:32:59.056Z,25.42
2018-06-20T19:35:29.080Z,25.28
2018-06-20T19:37:58.172Z,25.12
2018-06-20T19:40:27.343Z,25.10
2018-06-20T19:42:56.742Z,24.97
2018-06-20T19:45:25.824Z,24.92
2018-06-20T19:47:55.649Z,24.84
2018-06-20T19:50:25.698Z,24.75
2018-06-20T19:52:55.712Z,24.64
2018-06-20T19:55:25.525Z,24.52
2018-06-20T19:57:55.568Z,24.39
2018-06-20T20:00:24.900Z,24.33
2018-06-20T20:02:54.045Z,24.23
2018-06-20T20:05:23.348Z,24.12
2018-06-20T20:07:52.436Z,24.03
2018-06-20T20:10:21.944Z,23.99
2018-06-20T20:12:51.448Z,23.93
2018-06-20T20:15:20.483Z,23.87
2018-06-20T20:17:49.638Z,23.77
2018-06-20T20:20:19.586Z,23.57
2018-06-20T20:22:48.697Z,23.49
2018-06-20T20:25:17.833Z,23.40
2018-06-20T20:27:46.940Z,23.35
2018-06-20T20:30:16.084Z,23.23
2018-06-20T20:32:45.285Z,23.15
2018-06-20T20:35:15.326Z,23.10
2018-06-20T20:37:44.405Z,23.04
2018-06-20T20:40:13.554Z,23.00
2018-06-20T20:42:42.940Z,22.99
2018-06-20T20:45:12.013Z,22.95
2018-06-20T20:47:41.776Z,22.87
2018-06-20T20:50:10.921Z,22.82
2018-06-20T20:52:40.580Z,22.73
2018-06-20T20:55:09.663Z,22.77
2018-06-20T20:57:38.821Z,22.72
2018-06-20T21:00:08.529Z,22.72
2018-06-20T21:02:37.626Z,22.70
2018-06-20T21:05:06.853Z,22.65
2018-06-20T21:07:36.448Z,22.61
2018-06-20T21:10:05.545Z,22.59
2018-06-20T21:12:34.654Z,22.48
2018-06-20T21:15:04.069Z,22.41
2018-06-20T21:17:33.450Z,22.36
2018-06-20T21:20:02.565Z,22.20
2018-06-20T21:22:31.929Z,22.16
2018-06-20T21:25:01.051Z,22.11
2018-06-20T21:27:30.116Z,22.07
2018-06-20T21:29:59.523Z,22.05
2018-06-20T21:32:28.613Z,21.98
2018-06-20T21:34:57.708Z,21.91
2018-06-20T21:37:27.540Z,21.86
2018-06-20T21:39:56.652Z,21.83
2018-06-20T21:42:25.741Z,21.77
2018-06-20T21:44:54.838Z,21.74
2018-06-20T21:47:24.004Z,21.62
2018-06-20T21:49:53.180Z,21.62
2018-06-20T21:52:22.320Z,21.54
2018-06-20T21:54:51.435Z,21.42
2018-06-20T21:57:20.488Z,21.37
2018-06-20T21:59:49.664Z,21.35
2018-06-20T22:02:19.017Z,21.32
2018-06-20T22:04:48.072Z,21.31
2018-06-20T22:07:17.479Z,21.39
2018-06-20T22:09:46.600Z,21.34
2018-06-20T22:12:15.761Z,21.36
2018-06-20T22:14:45.266Z,21.35
2018-06-20T22:17:14.381Z,21.39
2018-06-20T22:19:44.372Z,21.38
2018-06-20T22:22:13.465Z,21.32
2018-06-20T22:24:42.584Z,21.24
2018-06-20T22:27:11.760Z,21.18
2018-06-20T22:29:40.868Z,21.12
2018-06-20T22:32:10.056Z,21.10
2018-06-20T22:34:39.208Z,21.03
2018-06-20T22:37:08.752Z,21.00
2018-06-20T22:39:37.876Z,20.96
2018-06-20T22:42:07.010Z,20.97
2018-06-20T22:44:36.300Z,20.91
2018-06-20T22:47:05.459Z,20.88
2018-06-20T22:49:34.697Z,20.79
2018-06-20T22:52:04.260Z,20.74
2018-06-20T22:54:33.416Z,20.69
2018-06-20T22:57:02.570Z,20.63
2018-06-20T22:59:31.972Z,20.64
2018-06-20T23:02:01.912Z,20.59
2018-06-20T23:04:31.057Z,20.53
2018-06-20T23:07:00.207Z,20.48
2018-06-20T23:09:29.305Z,20.44
2018-06-20T23:11:58.371Z,20.38
2018-06-20T23:14:27.598Z,20.32
2018-06-20T23:16:56.694Z,20.29
2018-06-20T23:19:25.791Z,20.27
2018-06-20T23:21:55.598Z,20.21
2018-06-20T23:24:24.745Z,20.16
2018-06-20T23:26:53.874Z,20.14
2018-06-20T23:29:23.000Z,20.17
2018-06-20T23:31:52.057Z,20.15
2018-06-20T23:34:21.244Z,20.06
2018-06-20T23:36:50.909Z,20.02
2018-06-20T23:39:19.952Z,19.93
2018-06-20T23:41:49.052Z,19.90
2018-06-20T23:44:18.135Z,19.86
2018-06-20T23:46:47.244Z,19.96
2018-06-20T23:49:16.437Z,19.92
2018-06-20T23:51:45.860Z,19.88
2018-06-20T23:54:15.060Z,19.89
2018-06-20T23:56:44.164Z,19.93
2018-06-20T23:59:13.919Z,19.97
